createdAt,value
2018-09-30T00:00:35.885Z,8.90
2018-09-30T00:03:05.629Z,8.90
2018-09-30T00:05:35.509Z,9.00
2018-09-30T00:08:05.156Z,9.00
2018-09-30T00:10:35.135Z,8.90
2018-09-30T00:13:04.780Z,8.90
2018-09-30T00:15:34.552Z,8.80
2018-09-30T00:18:04.317Z,8.70
2018-09-30T00:20:34.146Z,8.60
2018-09-30T00:23:03.738Z,8.70
2018-09-30T00:25:38.432Z,8.70
2018-09-30T00:28:08.174Z,8.60
2018-09-30T00:30:37.945Z,8.50
2018-09-30T00:33:07.544Z,8.50
2018-09-30T00:35:37.297Z,8.50
2018-09-30T00:38:07.168Z,8.50
2018-09-30T00:40:36.919Z,8.50
2018-09-30T00:43:06.787Z,8.50
2018-09-30T00:45:36.557Z,8.60
2018-09-30T00:48:06.416Z,8.60
2018-09-30T00:50:36.064Z,8.50
2018-09-30T00:53:05.890Z,8.50
2018-09-30T00:55:35.584Z,8.40
2018-09-30T00:58:05.411Z,8.40
2018-09-30T01:00:35.283Z,8.30
2018-09-30T01:03:05.024Z,8.30
2018-09-30T01:05:34.780Z,8.40
2018-09-30T01:08:04.445Z,8.30
2018-09-30T01:10:34.232Z,8.40
2018-09-30T01:13:03.933Z,8.50
2018-09-30T01:15:33.652Z,8.40
2018-09-30T01:18:03.335Z,8.40
2018-09-30T01:20:33.088Z,8.40
2018-09-30T01:23:02.775Z,8.30
2018-09-30T01:25:32.517Z,8.30
2018-09-30T01:28:02.212Z,8.30
2018-09-30T01:30:32.096Z,8.20
2018-09-30T01:33:02.021Z,8.30
2018-09-30T01:35:31.621Z,8.50
2018-09-30T01:38:01.346Z,8.40
2018-09-30T01:40:31.032Z,8.50
2018-09-30T01:43:00.790Z,8.50
2018-09-30T01:45:30.478Z,8.50
2018-09-30T01:48:00.092Z,8.40
2018-09-30T01:50:29.823Z,8.20
2018-09-30T01:52:59.694Z,8.10
2018-09-30T01:55:29.444Z,8.10
2018-09-30T01:57:59.215Z,8.00
2018-09-30T02:00:28.964Z,8.00
2018-09-30T02:02:58.844Z,8.00
2018-09-30T02:05:28.495Z,7.90
2018-09-30T02:07:58.180Z,7.90
2018-09-30T02:10:27.903Z,7.80
2018-09-30T02:12:57.585Z,7.80
2018-09-30T02:15:27.487Z,7.70
2018-09-30T02:17:57.162Z,7.80
2018-09-30T02:20:26.955Z,7.80
2018-09-30T02:22:56.694Z,7.80
2018-09-30T02:25:26.394Z,7.90
2018-09-30T02:27:56.185Z,7.90
2018-09-30T02:30:25.893Z,7.90
2018-09-30T02:32:55.768Z,7.90
2018-09-30T02:35:25.531Z,7.90
2018-09-30T02:37:55.640Z,7.80
2018-09-30T02:40:25.593Z,7.70
2018-09-30T02:42:55.256Z,7.80
2018-09-30T02:45:24.968Z,7.70
2018-09-30T02:47:54.760Z,7.60
2018-09-30T02:50:24.514Z,7.70
2018-09-30T02:52:54.365Z,7.80
2018-09-30T02:55:24.116Z,7.80
2018-09-30T02:57:53.811Z,7.70
2018-09-30T03:00:23.537Z,7.70
2018-09-30T03:02:53.336Z,7.60
2018-09-30T03:05:23.017Z,7.50
2018-09-30T03:07:57.513Z,7.50
2018-09-30T03:10:34.007Z,7.50
2018-09-30T03:13:06.252Z,7.40
2018-09-30T03:15:40.099Z,7.40
2018-09-30T03:18:09.893Z,7.30
2018-09-30T03:20:39.662Z,7.30
2018-09-30T03:23:09.517Z,7.30
2018-09-30T03:25:39.184Z,7.20
2018-09-30T03:28:09.057Z,7.20
2018-09-30T03:30:38.820Z,7.20
2018-09-30T03:33:08.564Z,7.20
2018-09-30T03:35:38.229Z,7.20
2018-09-30T03:38:07.908Z,7.20
2018-09-30T03:40:37.885Z,7.20
2018-09-30T03:43:07.641Z,7.30
2018-09-30T03:45:37.336Z,7.20
2018-09-30T03:48:07.052Z,7.30
2018-09-30T03:50:36.735Z,7.20
2018-09-30T03:53:06.385Z,7.30
2018-09-30T03:55:35.960Z,7.30
2018-09-30T03:58:05.704Z,7.40
2018-09-30T04:00:35.310Z,7.40
2018-09-30T04:03:05.081Z,7.30
2018-09-30T04:05:34.746Z,7.20
2018-09-30T04:08:04.438Z,7.10
2018-09-30T04:10:34.105Z,7.10
2018-09-30T04:13:03.751Z,7.10
2018-09-30T04:15:33.528Z,7.30
2018-09-30T04:18:03.182Z,7.30
2018-09-30T04:20:32.900Z,7.20
2018-09-30T04:23:02.706Z,7.20
2018-09-30T04:25:32.425Z,7.30
2018-09-30T04:28:02.175Z,7.20
2018-09-30T04:30:31.844Z,7.20
2018-09-30T04:33:01.601Z,7.10
2018-09-30T04:35:31.466Z,6.90
2018-09-30T04:38:01.220Z,6.90
2018-09-30T04:40:31.149Z,6.90
2018-09-30T04:43:00.852Z,6.90
2018-09-30T04:45:30.496Z,6.90
2018-09-30T04:48:00.180Z,7.00
2018-09-30T04:50:29.984Z,6.90
2018-09-30T04:52:59.837Z,6.80
2018-09-30T04:55:30.330Z,6.90
2018-09-30T04:58:02.651Z,6.90
2018-09-30T05:00:33.322Z,6.90
2018-09-30T05:03:03.630Z,6.90
2018-09-30T05:05:33.841Z,6.90
2018-09-30T05:08:04.724Z,6.80
2018-09-30T05:10:37.584Z,6.90
2018-09-30T05:13:08.526Z,6.90
2018-09-30T05:15:54.068Z,7.00
2018-09-30T05:18:26.334Z,6.90
2018-09-30T05:20:56.689Z,6.80
2018-09-30T05:23:27.205Z,6.90
2018-09-30T05:25:59.240Z,6.90
2018-09-30T05:28:31.820Z,7.00
2018-09-30T05:31:03.395Z,7.00
2018-09-30T05:33:34.768Z,7.00
2018-09-30T05:36:04.772Z,7.00
2018-09-30T05:38:40.592Z,7.00
2018-09-30T05:41:15.103Z,7.10
2018-09-30T05:43:44.978Z,7.10
2018-09-30T05:46:14.635Z,7.20
2018-09-30T05:48:45.338Z,7.30
2018-09-30T05:51:15.139Z,7.30
2018-09-30T05:53:44.788Z,7.40
2018-09-30T05:56:14.409Z,7.40
2018-09-30T05:58:44.161Z,7.50
2018-09-30T06:01:13.822Z,7.70
2018-09-30T06:03:43.585Z,7.80
2018-09-30T06:06:13.237Z,7.90
2018-09-30T06:08:42.933Z,8.00
2018-09-30T06:11:12.713Z,8.00
2018-09-30T06:13:42.266Z,8.10
2018-09-30T06:16:12.045Z,8.10
2018-09-30T06:18:41.785Z,8.20
2018-09-30T06:21:11.480Z,8.30
2018-09-30T06:23:41.157Z,8.40
2018-09-30T06:26:10.824Z,8.40
2018-09-30T06:28:40.604Z,8.40
2018-09-30T06:31:10.437Z,8.40
2018-09-30T06:33:40.021Z,8.50
2018-09-30T06:36:09.770Z,8.60
2018-09-30T06:38:39.272Z,8.80
2018-09-30T06:41:09.182Z,8.90
2018-09-30T06:43:38.858Z,9.00
2018-09-30T06:46:08.603Z,9.10
2018-09-30T06:48:38.988Z,9.10
2018-09-30T06:51:08.665Z,9.20
2018-09-30T06:53:38.433Z,9.30
2018-09-30T06:56:08.034Z,9.40
2018-09-30T06:58:37.924Z,9.40
2018-09-30T07:01:07.679Z,9.50
2018-09-30T07:03:37.436Z,9.60
2018-09-30T07:06:07.088Z,9.70
2018-09-30T07:08:36.693Z,9.90
2018-09-30T07:11:06.612Z,10.00
2018-09-30T07:13:36.320Z,9.90
2018-09-30T07:16:06.228Z,9.90
2018-09-30T07:18:36.046Z,9.90
2018-09-30T07:21:05.874Z,10.00
2018-09-30T07:23:35.674Z,10.10
2018-09-30T07:26:05.376Z,10.20
2018-09-30T07:28:34.982Z,10.50
2018-09-30T07:31:04.882Z,10.60
2018-09-30T07:33:34.487Z,10.80
2018-09-30T07:36:04.120Z,11.00
2018-09-30T07:38:33.824Z,11.10
2018-09-30T07:41:03.596Z,11.40
2018-09-30T07:43:33.247Z,11.90
2018-09-30T07:46:03.036Z,13.70
2018-09-30T07:48:32.455Z,16.10
2018-09-30T07:51:02.148Z,18.10
2018-09-30T07:53:31.896Z,19.70
2018-09-30T07:56:01.689Z,21.00
2018-09-30T07:58:31.109Z,21.80
2018-09-30T08:01:01.541Z,22.40
2018-09-30T08:03:31.333Z,23.10
2018-09-30T08:06:01.160Z,24.30
2018-09-30T08:08:30.752Z,24.60
2018-09-30T08:11:00.404Z,25.10
2018-09-30T08:13:30.119Z,25.10
2018-09-30T08:15:59.743Z,25.50
2018-09-30T08:18:29.268Z,25.30
2018-09-30T08:20:58.994Z,25.70
2018-09-30T08:23:28.810Z,26.50
2018-09-30T08:25:58.404Z,26.80
2018-09-30T08:28:27.997Z,26.30
2018-09-30T08:30:57.639Z,26.80
2018-09-30T08:33:27.329Z,26.60
2018-09-30T08:36:01.929Z,26.90
2018-09-30T08:38:32.976Z,27.80
2018-09-30T08:41:03.850Z,27.20
2018-09-30T08:43:34.726Z,26.40
2018-09-30T08:46:04.663Z,25.80
2018-09-30T08:48:34.220Z,25.80
2018-09-30T08:51:04.027Z,25.50
2018-09-30T08:53:33.780Z,25.80
2018-09-30T08:56:03.576Z,26.40
2018-09-30T08:58:33.121Z,25.60
2018-09-30T09:01:02.791Z,25.00
2018-09-30T09:03:32.456Z,24.80
2018-09-30T09:06:02.336Z,23.80
2018-09-30T09:08:31.828Z,23.10
2018-09-30T09:11:01.501Z,22.40
2018-09-30T09:13:31.159Z,21.50
2018-09-30T09:16:00.905Z,20.90
2018-09-30T09:18:30.528Z,20.70
2018-09-30T09:21:00.360Z,20.50
2018-09-30T09:23:30.118Z,20.50
2018-09-30T09:25:59.856Z,20.40
2018-09-30T09:28:29.541Z,20.30
2018-09-30T09:30:59.329Z,20.50
2018-09-30T09:33:28.986Z,20.20
2018-09-30T09:35:58.733Z,19.80
2018-09-30T09:38:28.369Z,20.10
2018-09-30T09:40:58.008Z,20.70
2018-09-30T09:43:27.744Z,21.90
2018-09-30T09:45:57.387Z,22.20
2018-09-30T09:48:27.137Z,21.90
2018-09-30T09:50:56.683Z,21.40
2018-09-30T09:53:26.353Z,21.30
2018-09-30T09:55:56.046Z,21.00
2018-09-30T09:58:25.732Z,20.60
2018-09-30T10:00:55.394Z,20.30
2018-09-30T10:03:25.407Z,20.60
2018-09-30T10:05:55.016Z,21.60
2018-09-30T10:08:24.709Z,22.60
2018-09-30T10:10:54.478Z,22.90
2018-09-30T10:13:24.028Z,23.20
2018-09-30T10:15:53.626Z,23.30
2018-09-30T10:18:23.208Z,23.30
2018-09-30T10:20:52.854Z,22.30
2018-09-30T10:23:22.632Z,21.40
2018-09-30T10:25:52.471Z,20.90
2018-09-30T10:28:22.173Z,20.30
2018-09-30T10:30:51.781Z,19.80
2018-09-30T10:33:21.484Z,19.30
2018-09-30T10:35:51.188Z,19.10
2018-09-30T10:38:20.950Z,18.80
2018-09-30T10:40:50.749Z,18.70
2018-09-30T10:43:20.180Z,18.80
2018-09-30T10:45:49.902Z,18.70
2018-09-30T10:48:19.584Z,18.70
2018-09-30T10:50:49.334Z,18.50
2018-09-30T10:53:18.778Z,18.50
2018-09-30T10:55:48.494Z,18.20
2018-09-30T10:58:18.247Z,18.10
2018-09-30T11:00:47.904Z,18.00
2018-09-30T11:03:17.656Z,17.90
2018-09-30T11:05:47.432Z,17.80
2018-09-30T11:08:17.121Z,17.70
2018-09-30T11:10:46.799Z,17.70
2018-09-30T11:13:16.428Z,17.60
2018-09-30T11:15:45.969Z,17.50
2018-09-30T11:18:15.717Z,17.60
2018-09-30T11:20:45.272Z,17.50
2018-09-30T11:23:14.984Z,17.50
2018-09-30T11:25:44.690Z,17.60
2018-09-30T11:28:14.380Z,17.60
2018-09-30T11:30:43.973Z,17.50
2018-09-30T11:33:13.513Z,17.50
2018-09-30T11:35:43.240Z,17.70
2018-09-30T11:38:13.097Z,17.80
2018-09-30T11:40:42.662Z,17.80
2018-09-30T11:43:12.409Z,17.60
2018-09-30T11:45:42.060Z,17.50
2018-09-30T11:48:11.762Z,17.50
2018-09-30T11:50:41.388Z,17.40
2018-09-30T11:53:11.303Z,17.40
2018-09-30T11:55:41.065Z,17.40
2018-09-30T11:58:10.727Z,17.30
2018-09-30T12:00:40.365Z,17.30
2018-09-30T12:03:09.984Z,17.30
2018-09-30T12:05:39.645Z,17.40
2018-09-30T12:08:09.268Z,17.40
2018-09-30T12:10:39.117Z,17.40
2018-09-30T12:13:08.784Z,17.50
2018-09-30T12:15:38.651Z,17.40
2018-09-30T12:18:08.174Z,17.40
2018-09-30T12:20:37.816Z,17.30
2018-09-30T12:23:08.297Z,17.20
2018-09-30T12:25:38.209Z,17.20
2018-09-30T12:28:07.742Z,17.20
2018-09-30T12:30:37.520Z,17.20
2018-09-30T12:33:07.173Z,17.20
2018-09-30T12:35:36.829Z,17.20
2018-09-30T12:38:06.322Z,17.30
2018-09-30T12:40:35.910Z,17.40
2018-09-30T12:43:05.572Z,17.40
2018-09-30T12:45:35.168Z,17.30
2018-09-30T12:48:04.772Z,17.30
2018-09-30T12:50:34.533Z,17.20
2018-09-30T12:53:04.292Z,17.30
2018-09-30T12:55:34.045Z,17.30
2018-09-30T12:58:03.697Z,17.40
2018-09-30T13:00:33.469Z,17.40
2018-09-30T13:03:03.182Z,17.40
2018-09-30T13:05:32.982Z,17.40
2018-09-30T13:08:02.620Z,17.30
2018-09-30T13:10:32.284Z,17.20
2018-09-30T13:13:02.071Z,17.20
2018-09-30T13:15:31.699Z,17.30
2018-09-30T13:18:01.494Z,17.30
2018-09-30T13:20:31.177Z,17.30
2018-09-30T13:23:00.702Z,17.40
2018-09-30T13:25:30.155Z,17.40
2018-09-30T13:28:00.006Z,17.40
2018-09-30T13:30:29.674Z,17.30
2018-09-30T13:32:59.382Z,17.30
2018-09-30T13:35:29.133Z,17.30
2018-09-30T13:37:58.780Z,17.30
2018-09-30T13:40:28.642Z,17.30
2018-09-30T13:42:58.288Z,17.20
2018-09-30T13:45:27.938Z,17.20
2018-09-30T13:47:57.717Z,17.20
2018-09-30T13:50:27.453Z,17.20
2018-09-30T13:52:57.268Z,17.10
2018-09-30T13:55:26.936Z,17.10
2018-09-30T13:57:56.684Z,17.10
2018-09-30T14:00:26.377Z,17.10
2018-09-30T14:02:56.014Z,17.10
2018-09-30T14:05:25.698Z,17.10
2018-09-30T14:07:55.523Z,17.00
2018-09-30T14:10:25.129Z,16.90
2018-09-30T14:12:54.933Z,16.90
2018-09-30T14:15:24.603Z,16.90
2018-09-30T14:17:54.265Z,16.80
2018-09-30T14:20:24.029Z,16.80
2018-09-30T14:22:53.787Z,16.80
2018-09-30T14:25:23.205Z,16.80
2018-09-30T14:27:52.956Z,16.80
2018-09-30T14:30:22.608Z,16.80
2018-09-30T14:32:52.393Z,16.80
2018-09-30T14:35:21.936Z,16.70
2018-09-30T14:37:51.642Z,16.70
2018-09-30T14:40:21.404Z,16.60
2018-09-30T14:42:51.168Z,16.50
2018-09-30T14:45:20.955Z,16.50
2018-09-30T14:47:50.632Z,16.50
2018-09-30T14:50:20.401Z,16.50
2018-09-30T14:52:50.156Z,16.50
2018-09-30T14:55:19.809Z,16.40
2018-09-30T14:57:49.571Z,16.40
2018-09-30T15:00:19.238Z,16.40
2018-09-30T15:02:48.914Z,16.30
2018-09-30T15:05:18.543Z,16.30
2018-09-30T15:07:48.529Z,16.30
2018-09-30T15:10:18.277Z,16.20
2018-09-30T15:12:48.063Z,16.10
2018-09-30T15:15:17.748Z,16.10
2018-09-30T15:17:47.407Z,16.10
2018-09-30T15:20:17.168Z,16.10
2018-09-30T15:22:46.823Z,16.10
2018-09-30T15:25:16.519Z,16.00
2018-09-30T15:27:46.300Z,16.00
2018-09-30T15:30:16.042Z,15.90
2018-09-30T15:32:45.769Z,15.90
2018-09-30T15:35:15.770Z,15.90
2018-09-30T15:37:45.693Z,15.80
2018-09-30T15:40:15.725Z,15.80
2018-09-30T15:42:46.278Z,15.70
2018-09-30T15:45:15.673Z,15.70
2018-09-30T15:47:45.298Z,15.60
2018-09-30T15:50:14.661Z,15.60
2018-09-30T15:52:44.040Z,15.50
2018-09-30T15:55:13.617Z,15.50
2018-09-30T15:57:43.300Z,15.50
2018-09-30T16:00:12.970Z,15.50
2018-09-30T16:02:42.668Z,15.50
2018-09-30T16:05:12.293Z,15.40
2018-09-30T16:07:42.125Z,15.40
2018-09-30T16:10:11.784Z,15.30
2018-09-30T16:12:41.154Z,15.30
2018-09-30T16:15:10.587Z,15.30
2018-09-30T16:17:39.998Z,15.20
2018-09-30T16:20:09.719Z,15.20
2018-09-30T16:22:39.153Z,15.10
2018-09-30T16:25:08.626Z,15.00
2018-09-30T16:27:38.228Z,15.00
2018-09-30T16:30:08.085Z,14.90
2018-09-30T16:32:37.760Z,14.80
2018-09-30T16:35:07.207Z,14.80
2018-09-30T16:37:36.828Z,14.70
2018-09-30T16:40:06.388Z,14.60
2018-09-30T16:42:36.019Z,14.60
2018-09-30T16:45:05.629Z,14.50
2018-09-30T16:47:35.231Z,14.50
2018-09-30T16:50:04.765Z,14.40
2018-09-30T16:52:34.133Z,14.30
2018-09-30T16:55:03.726Z,14.30
2018-09-30T16:57:33.231Z,14.20
2018-09-30T17:00:02.857Z,14.20
2018-09-30T17:02:32.220Z,14.10
2018-09-30T17:05:01.809Z,14.00
2018-09-30T17:07:33.934Z,14.00
2018-09-30T17:10:05.655Z,14.00
2018-09-30T17:12:35.682Z,13.90
2018-09-30T17:15:05.644Z,13.90
2018-09-30T17:17:35.304Z,13.90
2018-09-30T17:20:05.649Z,13.80
2018-09-30T17:22:35.810Z,13.80
2018-09-30T17:25:05.705Z,13.80
2018-09-30T17:27:35.353Z,13.70
2018-09-30T17:30:05.205Z,13.70
2018-09-30T17:32:35.129Z,13.60
2018-09-30T17:35:05.354Z,13.60
2018-09-30T17:37:35.328Z,13.60
2018-09-30T17:40:05.306Z,13.60
2018-09-30T17:42:35.337Z,13.60
2018-09-30T17:45:07.161Z,13.60
2018-09-30T17:47:36.876Z,13.60
2018-09-30T17:50:06.559Z,13.60
2018-09-30T17:52:36.348Z,13.50
2018-09-30T17:55:05.906Z,13.50
2018-09-30T17:57:35.493Z,13.50
2018-09-30T18:00:05.869Z,13.50
2018-09-30T18:02:35.399Z,13.40
2018-09-30T18:05:05.096Z,13.40
2018-09-30T18:07:34.545Z,13.40
2018-09-30T18:10:04.013Z,13.40
2018-09-30T18:12:33.633Z,13.40
2018-09-30T18:15:03.079Z,13.30
2018-09-30T18:17:32.557Z,13.30
2018-09-30T18:20:02.535Z,13.30
2018-09-30T18:22:32.493Z,13.30
2018-09-30T18:25:02.504Z,13.20
2018-09-30T18:27:32.293Z,13.10
2018-09-30T18:30:02.608Z,13.10
2018-09-30T18:32:33.220Z,13.00
2018-09-30T18:35:03.000Z,13.00
2018-09-30T18:37:32.751Z,12.90
2018-09-30T18:40:03.032Z,12.90
2018-09-30T18:42:33.411Z,12.90
2018-09-30T18:45:03.924Z,12.90
2018-09-30T18:47:33.732Z,12.90
2018-09-30T18:50:04.199Z,12.80
2018-09-30T18:52:34.297Z,12.70
2018-09-30T18:55:05.043Z,12.60
2018-09-30T18:57:35.120Z,12.50
2018-09-30T19:00:05.175Z,12.40
2018-09-30T19:02:35.078Z,12.40
2018-09-30T19:05:04.975Z,12.40
2018-09-30T19:07:34.804Z,12.30
2018-09-30T19:10:04.980Z,12.30
2018-09-30T19:12:35.201Z,12.30
2018-09-30T19:15:06.805Z,12.20
2018-09-30T19:17:37.203Z,12.10
2018-09-30T19:20:07.127Z,12.10
2018-09-30T19:22:36.893Z,12.00
2018-09-30T19:25:06.580Z,12.00
2018-09-30T19:27:35.984Z,11.90
2018-09-30T19:30:06.522Z,11.90
2018-09-30T19:32:36.093Z,11.90
2018-09-30T19:35:05.697Z,11.80
2018-09-30T19:37:35.173Z,11.80
2018-09-30T19:40:04.887Z,11.80
2018-09-30T19:42:34.513Z,11.70
2018-09-30T19:45:04.143Z,11.70
2018-09-30T19:47:33.678Z,11.70
2018-09-30T19:50:03.175Z,11.70
2018-09-30T19:52:32.724Z,11.60
2018-09-30T19:55:02.196Z,11.50
2018-09-30T19:57:32.008Z,11.50
2018-09-30T20:00:01.653Z,11.50
2018-09-30T20:02:31.130Z,11.40
2018-09-30T20:05:00.629Z,11.40
2018-09-30T20:07:30.065Z,11.40
2018-09-30T20:09:59.578Z,11.30
2018-09-30T20:12:29.168Z,11.30
2018-09-30T20:14:58.739Z,11.30
2018-09-30T20:17:28.381Z,11.30
2018-09-30T20:19:57.897Z,11.30
2018-09-30T20:22:27.477Z,11.20
2018-09-30T20:24:57.463Z,11.20
2018-09-30T20:27:27.354Z,11.20
2018-09-30T20:29:57.112Z,11.20
2018-09-30T20:32:26.792Z,11.10
2018-09-30T20:34:56.908Z,11.10
2018-09-30T20:37:26.924Z,11.00
2018-09-30T20:39:56.467Z,11.00
2018-09-30T20:42:26.377Z,11.00
2018-09-30T20:44:56.084Z,11.00
2018-09-30T20:47:25.875Z,10.90
2018-09-30T20:49:55.521Z,10.90
2018-09-30T20:52:25.232Z,10.90
2018-09-30T20:54:55.336Z,10.90
2018-09-30T20:57:25.149Z,10.90
2018-09-30T20:59:54.974Z,10.90
2018-09-30T21:02:24.802Z,10.90
2018-09-30T21:04:54.769Z,10.90
2018-09-30T21:07:24.653Z,10.90
2018-09-30T21:09:54.473Z,10.90
2018-09-30T21:12:24.209Z,11.00
2018-09-30T21:14:53.792Z,11.00
2018-09-30T21:17:23.541Z,10.90
2018-09-30T21:19:53.323Z,10.90
2018-09-30T21:22:23.096Z,10.90
2018-09-30T21:24:52.844Z,10.90
2018-09-30T21:27:22.635Z,10.80
2018-09-30T21:29:52.457Z,10.80
2018-09-30T21:32:22.220Z,10.70
2018-09-30T21:34:51.911Z,10.70
2018-09-30T21:37:21.598Z,10.70
2018-09-30T21:39:51.325Z,10.70
2018-09-30T21:42:21.004Z,10.70
2018-09-30T21:44:50.761Z,10.70
2018-09-30T21:47:20.632Z,10.70
2018-09-30T21:49:50.449Z,10.70
2018-09-30T21:52:20.157Z,10.70
2018-09-30T21:54:49.811Z,10.70
2018-09-30T21:57:19.501Z,10.70
2018-09-30T21:59:49.328Z,10.70
2018-09-30T22:02:19.052Z,10.60
2018-09-30T22:04:48.909Z,10.50
2018-09-30T22:07:18.568Z,10.50
2018-09-30T22:09:48.433Z,10.50
2018-09-30T22:12:18.185Z,10.50
2018-09-30T22:14:47.847Z,10.40
2018-09-30T22:17:17.600Z,10.40
2018-09-30T22:19:47.327Z,10.40
2018-09-30T22:22:17.105Z,10.40
2018-09-30T22:24:46.742Z,10.40
2018-09-30T22:27:16.600Z,10.40
2018-09-30T22:29:46.361Z,10.30
2018-09-30T22:32:16.048Z,10.30
2018-09-30T22:34:45.731Z,10.40
2018-09-30T22:37:15.424Z,10.40
2018-09-30T22:39:45.161Z,10.30
2018-09-30T22:42:14.913Z,10.30
2018-09-30T22:44:44.772Z,10.30
2018-09-30T22:47:14.326Z,10.30
2018-09-30T22:49:44.025Z,10.40
2018-09-30T22:52:13.809Z,10.40
2018-09-30T22:54:43.556Z,10.40
2018-09-30T22:57:13.328Z,10.40
2018-09-30T22:59:43.080Z,10.30
2018-09-30T23:02:12.948Z,10.30
2018-09-30T23:04:42.770Z,10.20
2018-09-30T23:07:12.780Z,10.20
2018-09-30T23:09:42.429Z,10.20
2018-09-30T23:12:12.203Z,10.20
2018-09-30T23:14:41.966Z,10.10
2018-09-30T23:17:11.799Z,10.10
2018-09-30T23:19:41.400Z,10.10
2018-09-30T23:22:11.092Z,10.10
2018-09-30T23:24:41.057Z,10.00
2018-09-30T23:27:10.800Z,10.00
2018-09-30T23:29:40.577Z,10.00
2018-09-30T23:32:10.728Z,9.90
2018-09-30T23:34:40.400Z,10.00
2018-09-30T23:37:10.147Z,10.00
2018-09-30T23:39:39.933Z,10.00
2018-09-30T23:42:09.607Z,10.00
2018-09-30T23:44:39.372Z,10.00
2018-09-30T23:47:09.124Z,10.00
2018-09-30T23:49:39.062Z,9.90
2018-09-30T23:52:08.612Z,9.90
2018-09-30T23:54:38.237Z,9.90
2018-09-30T23:57:08.002Z,9.90
2018-09-30T23:59:37.773Z,9.90
